sensor_id;sensor_type;location;lat;lon;timestamp;P1;durP1;ratioP1;P2;durP2;ratioP2
55589;SDS011;41452;42.780;23.116;2023-08-31T00:02:21;6.70;;;1.70;;
55589;SDS011;41452;42.780;23.116;2023-08-31T00:04:47;6.03;;;1.75;;
55589;SDS011;41452;42.780;23.116;2023-08-31T00:07:12;8.63;;;1.65;;
55589;SDS011;41452;42.780;23.116;2023-08-31T00:09:37;7.97;;;1.73;;
55589;SDS011;41452;42.780;23.116;2023-08-31T00:12:04;10.23;;;1.73;;
55589;SDS011;41452;42.780;23.116;2023-08-31T00:14:30;8.50;;;1.80;;
55589;SDS011;41452;42.780;23.116;2023-08-31T00:16:55;5.88;;;1.83;;
55589;SDS011;41452;42.780;23.116;2023-08-31T00:19:25;4.88;;;1.98;;
55589;SDS011;41452;42.780;23.116;2023-08-31T00:21:53;4.15;;;1.70;;
55589;SDS011;41452;42.780;23.116;2023-08-31T00:24:18;4.10;;;1.67;;
55589;SDS011;41452;42.780;23.116;2023-08-31T00:26:47;4.90;;;2.00;;
55589;SDS011;41452;42.780;23.116;2023-08-31T00:29:16;7.82;;;1.88;;
55589;SDS011;41452;42.780;23.116;2023-08-31T00:31:41;2.97;;;1.40;;
55589;SDS011;41452;42.780;23.116;2023-08-31T00:34:15;9.07;;;1.80;;
55589;SDS011;41452;42.780;23.116;2023-08-31T00:36:42;6.88;;;1.50;;
55589;SDS011;41452;42.780;23.116;2023-08-31T00:39:08;3.50;;;1.50;;
55589;SDS011;41452;42.780;23.116;2023-08-31T00:41:35;4.93;;;1.55;;
55589;SDS011;41452;42.780;23.116;2023-08-31T00:44:01;7.55;;;1.75;;
55589;SDS011;41452;42.780;23.116;2023-08-31T00:46:29;6.82;;;1.60;;
55589;SDS011;41452;42.780;23.116;2023-08-31T00:48:56;7.00;;;1.50;;
55589;SDS011;41452;42.780;23.116;2023-08-31T00:51:22;11.20;;;1.55;;
55589;SDS011;41452;42.780;23.116;2023-08-31T00:53:48;4.05;;;1.60;;
55589;SDS011;41452;42.780;23.116;2023-08-31T00:56:16;3.65;;;1.50;;
55589;SDS011;41452;42.780;23.116;2023-08-31T00:58:42;5.28;;;1.67;;
55589;SDS011;41452;42.780;23.116;2023-08-31T01:06:44;6.35;;;1.80;;
55589;SDS011;41452;42.780;23.116;2023-08-31T01:12:07;4.00;;;1.42;;
55589;SDS011;41452;42.780;23.116;2023-08-31T01:14:39;7.40;;;2.07;;
55589;SDS011;41452;42.780;23.116;2023-08-31T01:17:08;4.85;;;1.45;;
55589;SDS011;41452;42.780;23.116;2023-08-31T01:19:49;5.15;;;1.55;;
55589;SDS011;41452;42.780;23.116;2023-08-31T01:25:10;4.70;;;1.75;;
55589;SDS011;41452;42.780;23.116;2023-08-31T01:27:36;7.07;;;1.90;;
55589;SDS011;41452;42.780;23.116;2023-08-31T01:30:10;6.15;;;1.63;;
55589;SDS011;41452;42.780;23.116;2023-08-31T01:32:43;4.07;;;1.40;;
55589;SDS011;41452;42.780;23.116;2023-08-31T01:35:10;9.88;;;1.60;;
55589;SDS011;41452;42.780;23.116;2023-08-31T01:37:56;10.40;;;1.95;;
55589;SDS011;41452;42.780;23.116;2023-08-31T01:40:52;6.10;;;1.83;;
55589;SDS011;41452;42.780;23.116;2023-08-31T01:43:23;3.97;;;1.67;;
55589;SDS011;41452;42.780;23.116;2023-08-31T01:45:49;7.05;;;1.73;;
55589;SDS011;41452;42.780;23.116;2023-08-31T01:48:15;5.00;;;1.70;;
55589;SDS011;41452;42.780;23.116;2023-08-31T01:50:43;5.53;;;1.38;;
55589;SDS011;41452;42.780;23.116;2023-08-31T01:53:16;4.05;;;1.48;;
55589;SDS011;41452;42.780;23.116;2023-08-31T01:55:44;5.32;;;1.55;;
55589;SDS011;41452;42.780;23.116;2023-08-31T01:58:09;4.63;;;1.88;;
55589;SDS011;41452;42.780;23.116;2023-08-31T02:00:41;4.40;;;1.35;;
55589;SDS011;41452;42.780;23.116;2023-08-31T02:03:07;4.75;;;1.35;;
55589;SDS011;41452;42.780;23.116;2023-08-31T02:05:33;3.63;;;1.40;;
55589;SDS011;41452;42.780;23.116;2023-08-31T02:07:58;4.55;;;1.40;;
55589;SDS011;41452;42.780;23.116;2023-08-31T02:10:23;3.97;;;1.58;;
55589;SDS011;41452;42.780;23.116;2023-08-31T02:12:49;10.93;;;1.77;;
55589;SDS011;41452;42.780;23.116;2023-08-31T02:15:14;4.40;;;1.75;;
55589;SDS011;41452;42.780;23.116;2023-08-31T02:17:39;3.00;;;1.30;;
55589;SDS011;41452;42.780;23.116;2023-08-31T02:20:08;7.00;;;1.58;;
55589;SDS011;41452;42.780;23.116;2023-08-31T02:22:39;5.40;;;1.55;;
55589;SDS011;41452;42.780;23.116;2023-08-31T02:25:14;3.25;;;1.20;;
55589;SDS011;41452;42.780;23.116;2023-08-31T02:27:41;5.25;;;1.55;;
55589;SDS011;41452;42.780;23.116;2023-08-31T02:30:07;5.93;;;1.25;;
55589;SDS011;41452;42.780;23.116;2023-08-31T02:32:44;5.30;;;1.80;;
55589;SDS011;41452;42.780;23.116;2023-08-31T02:35:10;5.18;;;1.75;;
55589;SDS011;41452;42.780;23.116;2023-08-31T02:37:37;7.13;;;1.40;;
55589;SDS011;41452;42.780;23.116;2023-08-31T02:40:02;3.58;;;1.45;;
55589;SDS011;41452;42.780;23.116;2023-08-31T02:42:28;5.50;;;1.42;;
55589;SDS011;41452;42.780;23.116;2023-08-31T02:44:54;2.70;;;1.10;;
55589;SDS011;41452;42.780;23.116;2023-08-31T02:47:19;3.70;;;1.48;;
55589;SDS011;41452;42.780;23.116;2023-08-31T02:49:44;4.15;;;1.27;;
55589;SDS011;41452;42.780;23.116;2023-08-31T02:52:10;4.95;;;1.15;;
55589;SDS011;41452;42.780;23.116;2023-08-31T02:54:46;2.45;;;1.10;;
55589;SDS011;41452;42.780;23.116;2023-08-31T02:57:14;5.72;;;1.50;;
55589;SDS011;41452;42.780;23.116;2023-08-31T02:59:44;2.58;;;1.45;;
55589;SDS011;41452;42.780;23.116;2023-08-31T03:02:11;5.55;;;1.40;;
55589;SDS011;41452;42.780;23.116;2023-08-31T03:04:50;6.47;;;1.88;;
55589;SDS011;41452;42.780;23.116;2023-08-31T03:07:15;4.28;;;1.40;;
55589;SDS011;41452;42.780;23.116;2023-08-31T03:09:48;3.40;;;1.20;;
55589;SDS011;41452;42.780;23.116;2023-08-31T03:12:14;7.53;;;1.40;;
55589;SDS011;41452;42.780;23.116;2023-08-31T03:14:42;7.30;;;1.38;;
55589;SDS011;41452;42.780;23.116;2023-08-31T03:17:07;2.72;;;1.45;;
55589;SDS011;41452;42.780;23.116;2023-08-31T03:19:34;4.03;;;1.33;;
55589;SDS011;41452;42.780;23.116;2023-08-31T03:22:00;2.63;;;1.48;;
55589;SDS011;41452;42.780;23.116;2023-08-31T03:24:35;5.18;;;1.38;;
55589;SDS011;41452;42.780;23.116;2023-08-31T03:27:01;5.70;;;1.50;;
55589;SDS011;41452;42.780;23.116;2023-08-31T03:29:28;4.50;;;1.40;;
55589;SDS011;41452;42.780;23.116;2023-08-31T03:32:00;4.05;;;1.23;;
55589;SDS011;41452;42.780;23.116;2023-08-31T03:34:30;4.57;;;1.10;;
55589;SDS011;41452;42.780;23.116;2023-08-31T03:37:01;4.43;;;1.40;;
55589;SDS011;41452;42.780;23.116;2023-08-31T03:39:26;7.03;;;1.40;;
55589;SDS011;41452;42.780;23.116;2023-08-31T03:42:02;2.70;;;1.30;;
55589;SDS011;41452;42.780;23.116;2023-08-31T03:44:30;4.28;;;1.42;;
55589;SDS011;41452;42.780;23.116;2023-08-31T03:46:58;2.38;;;1.20;;
55589;SDS011;41452;42.780;23.116;2023-08-31T03:49:25;3.22;;;1.27;;
55589;SDS011;41452;42.780;23.116;2023-08-31T03:51:58;5.22;;;1.63;;
55589;SDS011;41452;42.780;23.116;2023-08-31T03:54:26;3.65;;;1.20;;
55589;SDS011;41452;42.780;23.116;2023-08-31T03:57:08;3.75;;;1.27;;
55589;SDS011;41452;42.780;23.116;2023-08-31T03:59:33;2.95;;;1.10;;
55589;SDS011;41452;42.780;23.116;2023-08-31T04:02:01;3.50;;;1.70;;
55589;SDS011;41452;42.780;23.116;2023-08-31T04:04:29;5.03;;;1.40;;
55589;SDS011;41452;42.780;23.116;2023-08-31T04:06:59;5.45;;;1.50;;
55589;SDS011;41452;42.780;23.116;2023-08-31T04:09:25;6.82;;;1.42;;
55589;SDS011;41452;42.780;23.116;2023-08-31T04:12:00;4.95;;;1.60;;
55589;SDS011;41452;42.780;23.116;2023-08-31T04:14:26;6.40;;;1.33;;
55589;SDS011;41452;42.780;23.116;2023-08-31T04:16:54;6.60;;;1.67;;
55589;SDS011;41452;42.780;23.116;2023-08-31T04:19:21;6.75;;;1.45;;
55589;SDS011;41452;42.780;23.116;2023-08-31T04:21:51;2.53;;;1.10;;
55589;SDS011;41452;42.780;23.116;2023-08-31T04:24:17;3.90;;;1.50;;
55589;SDS011;41452;42.780;23.116;2023-08-31T04:26:51;5.38;;;1.50;;
55589;SDS011;41452;42.780;23.116;2023-08-31T04:29:16;5.03;;;1.30;;
55589;SDS011;41452;42.780;23.116;2023-08-31T04:31:42;3.97;;;1.45;;
55589;SDS011;41452;42.780;23.116;2023-08-31T04:34:15;6.60;;;1.27;;
55589;SDS011;41452;42.780;23.116;2023-08-31T04:36:41;3.65;;;1.08;;
55589;SDS011;41452;42.780;23.116;2023-08-31T04:39:08;6.63;;;1.58;;
55589;SDS011;41452;42.780;23.116;2023-08-31T04:41:34;4.05;;;1.38;;
55589;SDS011;41452;42.780;23.116;2023-08-31T04:44:01;5.80;;;1.40;;
55589;SDS011;41452;42.780;23.116;2023-08-31T04:46:26;4.00;;;1.20;;
55589;SDS011;41452;42.780;23.116;2023-08-31T04:48:52;3.13;;;1.27;;
55589;SDS011;41452;42.780;23.116;2023-08-31T04:53:54;7.22;;;1.45;;
55589;SDS011;41452;42.780;23.116;2023-08-31T04:56:22;5.13;;;1.30;;
55589;SDS011;41452;42.780;23.116;2023-08-31T04:58:52;3.17;;;1.38;;
55589;SDS011;41452;42.780;23.116;2023-08-31T05:01:18;7.55;;;1.45;;
55589;SDS011;41452;42.780;23.116;2023-08-31T05:03:43;4.88;;;1.52;;
55589;SDS011;41452;42.780;23.116;2023-08-31T05:06:08;4.22;;;1.17;;
55589;SDS011;41452;42.780;23.116;2023-08-31T05:08:34;4.18;;;1.60;;
55589;SDS011;41452;42.780;23.116;2023-08-31T05:10:59;6.25;;;1.38;;
55589;SDS011;41452;42.780;23.116;2023-08-31T05:13:24;2.50;;;1.30;;
55589;SDS011;41452;42.780;23.116;2023-08-31T05:15:53;7.28;;;1.60;;
55589;SDS011;41452;42.780;23.116;2023-08-31T05:18:25;4.60;;;1.55;;
55589;SDS011;41452;42.780;23.116;2023-08-31T05:20:51;6.35;;;1.70;;
55589;SDS011;41452;42.780;23.116;2023-08-31T05:23:16;3.63;;;1.50;;
55589;SDS011;41452;42.780;23.116;2023-08-31T05:25:44;6.97;;;1.83;;
55589;SDS011;41452;42.780;23.116;2023-08-31T05:28:12;7.88;;;2.38;;
55589;SDS011;41452;42.780;23.116;2023-08-31T05:30:47;5.60;;;1.85;;
55589;SDS011;41452;42.780;23.116;2023-08-31T05:33:14;5.13;;;2.08;;
55589;SDS011;41452;42.780;23.116;2023-08-31T05:35:50;10.20;;;2.65;;
55589;SDS011;41452;42.780;23.116;2023-08-31T05:38:15;4.00;;;2.00;;
55589;SDS011;41452;42.780;23.116;2023-08-31T05:40:41;9.40;;;2.58;;
55589;SDS011;41452;42.780;23.116;2023-08-31T05:43:11;8.70;;;2.70;;
55589;SDS011;41452;42.780;23.116;2023-08-31T05:45:39;6.95;;;2.17;;
55589;SDS011;41452;42.780;23.116;2023-08-31T05:48:07;4.63;;;1.75;;
55589;SDS011;41452;42.780;23.116;2023-08-31T05:50:33;9.80;;;2.03;;
55589;SDS011;41452;42.780;23.116;2023-08-31T05:53:01;8.73;;;2.50;;
55589;SDS011;41452;42.780;23.116;2023-08-31T05:55:27;3.75;;;1.48;;
55589;SDS011;41452;42.780;23.116;2023-08-31T05:57:52;4.65;;;1.67;;
55589;SDS011;41452;42.780;23.116;2023-08-31T06:00:25;7.40;;;1.58;;
55589;SDS011;41452;42.780;23.116;2023-08-31T06:03:06;3.33;;;1.77;;
55589;SDS011;41452;42.780;23.116;2023-08-31T06:05:32;6.50;;;1.50;;
55589;SDS011;41452;42.780;23.116;2023-08-31T06:08:05;6.20;;;1.42;;
55589;SDS011;41452;42.780;23.116;2023-08-31T06:10:32;5.45;;;1.40;;
55589;SDS011;41452;42.780;23.116;2023-08-31T06:12:58;4.80;;;1.70;;
55589;SDS011;41452;42.780;23.116;2023-08-31T06:15:23;6.07;;;1.65;;
55589;SDS011;41452;42.780;23.116;2023-08-31T06:17:48;6.70;;;1.70;;
55589;SDS011;41452;42.780;23.116;2023-08-31T06:20:16;9.50;;;2.60;;
55589;SDS011;41452;42.780;23.116;2023-08-31T06:22:44;5.40;;;1.83;;
55589;SDS011;41452;42.780;23.116;2023-08-31T06:25:17;13.68;;;2.13;;
55589;SDS011;41452;42.780;23.116;2023-08-31T06:27:43;9.57;;;2.33;;
55589;SDS011;41452;42.780;23.116;2023-08-31T06:30:33;12.23;;;1.65;;
55589;SDS011;41452;42.780;23.116;2023-08-31T06:32:58;6.40;;;1.50;;
55589;SDS011;41452;42.780;23.116;2023-08-31T06:35:26;11.25;;;2.13;;
55589;SDS011;41452;42.780;23.116;2023-08-31T06:37:54;8.23;;;1.98;;
55589;SDS011;41452;42.780;23.116;2023-08-31T06:40:21;7.72;;;2.00;;
55589;SDS011;41452;42.780;23.116;2023-08-31T06:42:46;6.93;;;1.58;;
55589;SDS011;41452;42.780;23.116;2023-08-31T06:45:19;4.95;;;1.70;;
55589;SDS011;41452;42.780;23.116;2023-08-31T06:47:45;4.15;;;1.67;;
55589;SDS011;41452;42.780;23.116;2023-08-31T06:50:12;12.93;;;2.17;;
55589;SDS011;41452;42.780;23.116;2023-08-31T06:52:37;5.32;;;1.77;;
55589;SDS011;41452;42.780;23.116;2023-08-31T06:55:03;6.57;;;1.80;;
55589;SDS011;41452;42.780;23.116;2023-08-31T06:57:35;10.15;;;2.05;;
55589;SDS011;41452;42.780;23.116;2023-08-31T07:00:19;7.60;;;2.00;;
55589;SDS011;41452;42.780;23.116;2023-08-31T07:02:52;12.65;;;2.15;;
55589;SDS011;41452;42.780;23.116;2023-08-31T07:05:25;5.60;;;1.67;;
55589;SDS011;41452;42.780;23.116;2023-08-31T07:08:00;5.97;;;1.95;;
55589;SDS011;41452;42.780;23.116;2023-08-31T07:10:28;4.03;;;1.85;;
55589;SDS011;41452;42.780;23.116;2023-08-31T07:12:54;4.80;;;1.77;;
55589;SDS011;41452;42.780;23.116;2023-08-31T07:15:23;8.52;;;2.00;;
55589;SDS011;41452;42.780;23.116;2023-08-31T07:17:51;6.70;;;1.65;;
55589;SDS011;41452;42.780;23.116;2023-08-31T07:20:16;19.58;;;2.20;;
55589;SDS011;41452;42.780;23.116;2023-08-31T07:22:42;9.82;;;2.33;;
55589;SDS011;41452;42.780;23.116;2023-08-31T07:27:56;6.20;;;1.95;;
55589;SDS011;41452;42.780;23.116;2023-08-31T07:30:21;10.25;;;2.00;;
55589;SDS011;41452;42.780;23.116;2023-08-31T07:32:46;4.28;;;1.65;;
55589;SDS011;41452;42.780;23.116;2023-08-31T07:35:12;6.15;;;1.60;;
55589;SDS011;41452;42.780;23.116;2023-08-31T07:37:37;6.13;;;2.15;;
55589;SDS011;41452;42.780;23.116;2023-08-31T07:40:03;6.22;;;2.00;;
55589;SDS011;41452;42.780;23.116;2023-08-31T07:42:33;5.15;;;1.75;;
55589;SDS011;41452;42.780;23.116;2023-08-31T07:45:01;6.10;;;2.15;;
55589;SDS011;41452;42.780;23.116;2023-08-31T07:47:26;6.20;;;1.70;;
55589;SDS011;41452;42.780;23.116;2023-08-31T07:49:51;4.68;;;1.70;;
55589;SDS011;41452;42.780;23.116;2023-08-31T07:52:17;7.93;;;2.22;;
55589;SDS011;41452;42.780;23.116;2023-08-31T07:54:45;4.70;;;1.63;;
55589;SDS011;41452;42.780;23.116;2023-08-31T07:57:10;9.30;;;2.17;;
55589;SDS011;41452;42.780;23.116;2023-08-31T07:59:36;6.68;;;1.70;;
55589;SDS011;41452;42.780;23.116;2023-08-31T08:02:04;7.47;;;1.83;;
55589;SDS011;41452;42.780;23.116;2023-08-31T08:04:30;7.03;;;1.75;;
55589;SDS011;41452;42.780;23.116;2023-08-31T08:06:58;7.95;;;1.48;;
55589;SDS011;41452;42.780;23.116;2023-08-31T08:09:23;5.32;;;2.00;;
55589;SDS011;41452;42.780;23.116;2023-08-31T08:11:58;6.47;;;1.80;;
55589;SDS011;41452;42.780;23.116;2023-08-31T08:14:23;5.35;;;1.80;;
55589;SDS011;41452;42.780;23.116;2023-08-31T08:16:48;6.63;;;2.47;;
55589;SDS011;41452;42.780;23.116;2023-08-31T08:19:20;5.57;;;2.40;;
55589;SDS011;41452;42.780;23.116;2023-08-31T08:21:48;7.50;;;2.67;;
55589;SDS011;41452;42.780;23.116;2023-08-31T08:24:14;10.30;;;2.50;;
55589;SDS011;41452;42.780;23.116;2023-08-31T08:26:39;6.03;;;2.85;;
55589;SDS011;41452;42.780;23.116;2023-08-31T08:29:05;3.88;;;2.30;;
55589;SDS011;41452;42.780;23.116;2023-08-31T08:31:30;4.70;;;2.60;;
55589;SDS011;41452;42.780;23.116;2023-08-31T08:33:58;6.57;;;2.60;;
55589;SDS011;41452;42.780;23.116;2023-08-31T08:36:23;5.45;;;2.20;;
55589;SDS011;41452;42.780;23.116;2023-08-31T08:38:56;4.80;;;2.60;;
55589;SDS011;41452;42.780;23.116;2023-08-31T08:41:22;5.55;;;2.58;;
55589;SDS011;41452;42.780;23.116;2023-08-31T08:43:48;5.72;;;2.58;;
55589;SDS011;41452;42.780;23.116;2023-08-31T08:46:16;6.30;;;2.38;;
55589;SDS011;41452;42.780;23.116;2023-08-31T08:48:41;6.85;;;2.30;;
55589;SDS011;41452;42.780;23.116;2023-08-31T08:51:11;4.85;;;2.30;;
55589;SDS011;41452;42.780;23.116;2023-08-31T08:53:41;5.43;;;2.67;;
55589;SDS011;41452;42.780;23.116;2023-08-31T08:56:08;4.82;;;2.70;;
55589;SDS011;41452;42.780;23.116;2023-08-31T08:58:36;5.55;;;2.70;;
55589;SDS011;41452;42.780;23.116;2023-08-31T09:01:01;7.78;;;3.25;;
55589;SDS011;41452;42.780;23.116;2023-08-31T09:03:30;4.80;;;2.70;;
55589;SDS011;41452;42.780;23.116;2023-08-31T09:06:01;5.43;;;2.55;;
55589;SDS011;41452;42.780;23.116;2023-08-31T09:08:28;4.47;;;2.20;;
55589;SDS011;41452;42.780;23.116;2023-08-31T09:10:57;6.63;;;2.58;;
55589;SDS011;41452;42.780;23.116;2023-08-31T09:13:25;6.45;;;3.08;;
55589;SDS011;41452;42.780;23.116;2023-08-31T09:15:55;4.32;;;2.67;;
55589;SDS011;41452;42.780;23.116;2023-08-31T09:20:54;4.78;;;2.35;;
55589;SDS011;41452;42.780;23.116;2023-08-31T09:23:26;5.55;;;2.90;;
55589;SDS011;41452;42.780;23.116;2023-08-31T09:25:52;5.72;;;2.70;;
55589;SDS011;41452;42.780;23.116;2023-08-31T09:28:41;7.22;;;3.00;;
55589;SDS011;41452;42.780;23.116;2023-08-31T09:31:12;6.40;;;3.10;;
55589;SDS011;41452;42.780;23.116;2023-08-31T09:33:40;5.85;;;2.80;;
55589;SDS011;41452;42.780;23.116;2023-08-31T09:36:17;7.15;;;2.90;;
55589;SDS011;41452;42.780;23.116;2023-08-31T09:38:47;9.60;;;3.30;;
55589;SDS011;41452;42.780;23.116;2023-08-31T09:41:15;6.22;;;2.95;;
55589;SDS011;41452;42.780;23.116;2023-08-31T09:43:41;6.35;;;3.05;;
55589;SDS011;41452;42.780;23.116;2023-08-31T09:46:10;5.45;;;2.90;;
55589;SDS011;41452;42.780;23.116;2023-08-31T09:48:38;6.82;;;3.53;;
55589;SDS011;41452;42.780;23.116;2023-08-31T09:51:12;7.78;;;3.50;;
55589;SDS011;41452;42.780;23.116;2023-08-31T09:53:45;9.07;;;4.05;;
55589;SDS011;41452;42.780;23.116;2023-08-31T09:56:14;6.25;;;3.08;;
55589;SDS011;41452;42.780;23.116;2023-08-31T09:58:45;7.22;;;2.67;;
55589;SDS011;41452;42.780;23.116;2023-08-31T10:01:11;6.85;;;2.92;;
55589;SDS011;41452;42.780;23.116;2023-08-31T10:03:44;4.88;;;2.72;;
55589;SDS011;41452;42.780;23.116;2023-08-31T10:06:10;5.35;;;3.00;;
55589;SDS011;41452;42.780;23.116;2023-08-31T10:08:37;5.95;;;2.47;;
55589;SDS011;41452;42.780;23.116;2023-08-31T10:11:03;6.75;;;3.05;;
55589;SDS011;41452;42.780;23.116;2023-08-31T10:16:05;5.35;;;2.65;;
55589;SDS011;41452;42.780;23.116;2023-08-31T10:18:36;5.32;;;2.75;;
55589;SDS011;41452;42.780;23.116;2023-08-31T10:21:02;5.10;;;2.55;;
55589;SDS011;41452;42.780;23.116;2023-08-31T10:23:29;8.40;;;2.90;;
55589;SDS011;41452;42.780;23.116;2023-08-31T10:28:21;5.40;;;2.70;;
55589;SDS011;41452;42.780;23.116;2023-08-31T10:34:05;7.60;;;3.20;;
55589;SDS011;41452;42.780;23.116;2023-08-31T10:39:14;7.15;;;2.70;;
55589;SDS011;41452;42.780;23.116;2023-08-31T10:41:54;6.40;;;2.53;;
55589;SDS011;41452;42.780;23.116;2023-08-31T10:44:25;5.57;;;2.53;;
55589;SDS011;41452;42.780;23.116;2023-08-31T10:46:54;4.10;;;1.98;;
55589;SDS011;41452;42.780;23.116;2023-08-31T10:49:30;4.40;;;2.33;;
55589;SDS011;41452;42.780;23.116;2023-08-31T10:52:14;6.60;;;2.40;;
55589;SDS011;41452;42.780;23.116;2023-08-31T10:54:54;6.72;;;2.80;;
55589;SDS011;41452;42.780;23.116;2023-08-31T10:57:31;5.20;;;2.53;;
55589;SDS011;41452;42.780;23.116;2023-08-31T10:59:59;8.95;;;2.55;;
55589;SDS011;41452;42.780;23.116;2023-08-31T11:07:37;8.95;;;2.42;;
55589;SDS011;41452;42.780;23.116;2023-08-31T11:12:43;8.23;;;2.10;;
55589;SDS011;41452;42.780;23.116;2023-08-31T11:15:13;5.88;;;2.35;;
55589;SDS011;41452;42.780;23.116;2023-08-31T11:17:41;8.77;;;2.65;;
55589;SDS011;41452;42.780;23.116;2023-08-31T11:20:08;4.95;;;1.92;;
55589;SDS011;41452;42.780;23.116;2023-08-31T11:22:38;8.77;;;2.15;;
55589;SDS011;41452;42.780;23.116;2023-08-31T11:25:06;8.75;;;2.08;;
55589;SDS011;41452;42.780;23.116;2023-08-31T11:27:33;5.15;;;2.40;;
55589;SDS011;41452;42.780;23.116;2023-08-31T11:29:58;5.82;;;2.00;;
55589;SDS011;41452;42.780;23.116;2023-08-31T11:32:24;4.82;;;2.17;;
55589;SDS011;41452;42.780;23.116;2023-08-31T11:34:49;5.88;;;1.75;;
55589;SDS011;41452;42.780;23.116;2023-08-31T11:37:15;4.80;;;2.08;;
55589;SDS011;41452;42.780;23.116;2023-08-31T11:39:42;4.82;;;2.08;;
55589;SDS011;41452;42.780;23.116;2023-08-31T11:42:18;4.88;;;1.77;;
55589;SDS011;41452;42.780;23.116;2023-08-31T11:44:50;4.38;;;2.00;;
55589;SDS011;41452;42.780;23.116;2023-08-31T11:47:18;5.82;;;2.15;;
55589;SDS011;41452;42.780;23.116;2023-08-31T11:49:45;5.75;;;2.00;;
55589;SDS011;41452;42.780;23.116;2023-08-31T11:52:11;6.20;;;1.95;;
55589;SDS011;41452;42.780;23.116;2023-08-31T11:54:38;4.90;;;2.00;;
55589;SDS011;41452;42.780;23.116;2023-08-31T11:57:06;6.80;;;1.80;;
55589;SDS011;41452;42.780;23.116;2023-08-31T11:59:34;6.50;;;2.25;;
55589;SDS011;41452;42.780;23.116;2023-08-31T12:02:00;4.38;;;1.92;;
55589;SDS011;41452;42.780;23.116;2023-08-31T12:04:25;5.25;;;1.80;;
55589;SDS011;41452;42.780;23.116;2023-08-31T12:06:51;4.60;;;2.10;;
55589;SDS011;41452;42.780;23.116;2023-08-31T12:09:18;4.25;;;1.70;;
55589;SDS011;41452;42.780;23.116;2023-08-31T12:11:51;5.53;;;1.77;;
55589;SDS011;41452;42.780;23.116;2023-08-31T12:16:49;4.38;;;1.60;;
55589;SDS011;41452;42.780;23.116;2023-08-31T12:19:15;6.35;;;1.83;;
55589;SDS011;41452;42.780;23.116;2023-08-31T12:21:44;6.38;;;2.10;;
55589;SDS011;41452;42.780;23.116;2023-08-31T12:24:11;7.57;;;2.00;;
55589;SDS011;41452;42.780;23.116;2023-08-31T12:26:37;5.75;;;1.85;;
55589;SDS011;41452;42.780;23.116;2023-08-31T12:29:02;6.00;;;2.20;;
55589;SDS011;41452;42.780;23.116;2023-08-31T12:31:30;5.70;;;2.17;;
55589;SDS011;41452;42.780;23.116;2023-08-31T12:33:56;7.30;;;2.15;;
55589;SDS011;41452;42.780;23.116;2023-08-31T12:36:21;6.57;;;1.92;;
55589;SDS011;41452;42.780;23.116;2023-08-31T12:38:47;4.57;;;1.92;;
55589;SDS011;41452;42.780;23.116;2023-08-31T12:41:12;6.40;;;1.98;;
55589;SDS011;41452;42.780;23.116;2023-08-31T12:43:38;3.95;;;1.95;;
55589;SDS011;41452;42.780;23.116;2023-08-31T12:46:03;5.07;;;2.00;;
55589;SDS011;41452;42.780;23.116;2023-08-31T12:48:31;4.97;;;1.98;;
55589;SDS011;41452;42.780;23.116;2023-08-31T12:50:57;6.80;;;1.90;;
55589;SDS011;41452;42.780;23.116;2023-08-31T12:53:23;5.40;;;2.40;;
55589;SDS011;41452;42.780;23.116;2023-08-31T12:55:49;3.47;;;1.95;;
55589;SDS011;41452;42.780;23.116;2023-08-31T12:58:15;8.05;;;2.50;;
55589;SDS011;41452;42.780;23.116;2023-08-31T13:00:40;7.30;;;2.00;;
55589;SDS011;41452;42.780;23.116;2023-08-31T13:03:08;4.57;;;1.90;;
55589;SDS011;41452;42.780;23.116;2023-08-31T13:05:33;7.10;;;1.95;;
55589;SDS011;41452;42.780;23.116;2023-08-31T13:07:59;5.13;;;2.05;;
55589;SDS011;41452;42.780;23.116;2023-08-31T13:10:24;5.85;;;1.92;;
55589;SDS011;41452;42.780;23.116;2023-08-31T13:12:50;5.15;;;2.50;;
55589;SDS011;41452;42.780;23.116;2023-08-31T13:15:15;4.57;;;1.88;;
55589;SDS011;41452;42.780;23.116;2023-08-31T13:17:41;5.07;;;2.20;;
55589;SDS011;41452;42.780;23.116;2023-08-31T13:20:06;4.97;;;2.13;;
55589;SDS011;41452;42.780;23.116;2023-08-31T13:22:35;7.35;;;2.50;;
55589;SDS011;41452;42.780;23.116;2023-08-31T13:25:00;3.97;;;1.90;;
55589;SDS011;41452;42.780;23.116;2023-08-31T13:27:26;5.90;;;2.20;;
55589;SDS011;41452;42.780;23.116;2023-08-31T13:29:51;5.57;;;2.03;;
55589;SDS011;41452;42.780;23.116;2023-08-31T13:32:17;5.20;;;1.95;;
55589;SDS011;41452;42.780;23.116;2023-08-31T13:34:42;5.03;;;2.05;;
55589;SDS011;41452;42.780;23.116;2023-08-31T13:37:07;5.13;;;2.22;;
55589;SDS011;41452;42.780;23.116;2023-08-31T13:39:34;6.57;;;2.10;;
55589;SDS011;41452;42.780;23.116;2023-08-31T13:42:05;5.05;;;2.08;;
55589;SDS011;41452;42.780;23.116;2023-08-31T13:44:31;5.82;;;1.88;;
55589;SDS011;41452;42.780;23.116;2023-08-31T13:46:57;6.18;;;2.00;;
55589;SDS011;41452;42.780;23.116;2023-08-31T13:49:23;4.20;;;1.83;;
55589;SDS011;41452;42.780;23.116;2023-08-31T13:51:48;5.65;;;1.90;;
55589;SDS011;41452;42.780;23.116;2023-08-31T13:54:14;4.22;;;1.90;;
55589;SDS011;41452;42.780;23.116;2023-08-31T13:56:39;5.07;;;2.00;;
55589;SDS011;41452;42.780;23.116;2023-08-31T13:59:04;6.25;;;1.95;;
55589;SDS011;41452;42.780;23.116;2023-08-31T14:01:30;5.93;;;2.20;;
55589;SDS011;41452;42.780;23.116;2023-08-31T14:03:55;5.13;;;1.95;;
55589;SDS011;41452;42.780;23.116;2023-08-31T14:06:21;4.43;;;1.95;;
55589;SDS011;41452;42.780;23.116;2023-08-31T14:08:46;7.18;;;1.98;;
55589;SDS011;41452;42.780;23.116;2023-08-31T14:11:12;5.25;;;1.77;;
55589;SDS011;41452;42.780;23.116;2023-08-31T14:13:38;6.40;;;2.30;;
55589;SDS011;41452;42.780;23.116;2023-08-31T14:16:04;4.32;;;1.80;;
55589;SDS011;41452;42.780;23.116;2023-08-31T14:18:30;5.80;;;2.15;;
55589;SDS011;41452;42.780;23.116;2023-08-31T14:21:02;4.35;;;2.10;;
55589;SDS011;41452;42.780;23.116;2023-08-31T14:23:30;4.75;;;1.98;;
55589;SDS011;41452;42.780;23.116;2023-08-31T14:26:03;4.57;;;2.35;;
55589;SDS011;41452;42.780;23.116;2023-08-31T14:28:39;4.13;;;2.00;;
55589;SDS011;41452;42.780;23.116;2023-08-31T14:31:05;9.55;;;2.28;;
55589;SDS011;41452;42.780;23.116;2023-08-31T14:33:31;6.40;;;2.10;;
55589;SDS011;41452;42.780;23.116;2023-08-31T14:35:56;6.20;;;2.10;;
55589;SDS011;41452;42.780;23.116;2023-08-31T14:38:22;6.07;;;1.92;;
55589;SDS011;41452;42.780;23.116;2023-08-31T14:40:50;4.75;;;2.13;;
55589;SDS011;41452;42.780;23.116;2023-08-31T14:43:16;6.55;;;2.40;;
55589;SDS011;41452;42.780;23.116;2023-08-31T14:45:41;6.68;;;1.90;;
55589;SDS011;41452;42.780;23.116;2023-08-31T14:48:08;6.53;;;2.03;;
55589;SDS011;41452;42.780;23.116;2023-08-31T14:50:33;6.40;;;1.90;;
55589;SDS011;41452;42.780;23.116;2023-08-31T14:52:59;5.40;;;2.67;;
55589;SDS011;41452;42.780;23.116;2023-08-31T14:55:25;5.00;;;2.10;;
55589;SDS011;41452;42.780;23.116;2023-08-31T14:57:50;5.35;;;2.05;;
55589;SDS011;41452;42.780;23.116;2023-08-31T15:00:16;6.00;;;2.70;;
55589;SDS011;41452;42.780;23.116;2023-08-31T15:02:46;9.45;;;2.60;;
55589;SDS011;41452;42.780;23.116;2023-08-31T15:05:12;5.68;;;2.22;;
55589;SDS011;41452;42.780;23.116;2023-08-31T15:07:38;6.65;;;2.38;;
55589;SDS011;41452;42.780;23.116;2023-08-31T15:10:04;7.75;;;2.70;;
55589;SDS011;41452;42.780;23.116;2023-08-31T15:12:30;6.35;;;2.08;;
55589;SDS011;41452;42.780;23.116;2023-08-31T15:14:55;4.38;;;2.10;;
55589;SDS011;41452;42.780;23.116;2023-08-31T15:17:20;5.45;;;2.03;;
55589;SDS011;41452;42.780;23.116;2023-08-31T15:19:50;6.85;;;2.50;;